sensor_id;sensor_type;location;lat;lon;timestamp;P1;durP1;ratioP1;P2;durP2;ratioP2
1545;SDS011;766;51.502;9.752;2024-02-28T00:00:44;24.70;;;16.25;;
1545;SDS011;766;51.502;9.752;2024-02-28T00:03:13;24.67;;;15.65;;
1545;SDS011;766;51.502;9.752;2024-02-28T00:05:41;26.05;;;15.95;;
1545;SDS011;766;51.502;9.752;2024-02-28T00:08:11;24.83;;;16.15;;
1545;SDS011;766;51.502;9.752;2024-02-28T00:10:39;23.90;;;14.73;;
1545;SDS011;766;51.502;9.752;2024-02-28T00:13:08;25.73;;;16.27;;
1545;SDS011;766;51.502;9.752;2024-02-28T00:15:37;24.65;;;16.40;;
1545;SDS011;766;51.502;9.752;2024-02-28T00:18:05;23.40;;;15.43;;
1545;SDS011;766;51.502;9.752;2024-02-28T00:20:33;23.42;;;15.18;;
1545;SDS011;766;51.502;9.752;2024-02-28T00:23:04;25.45;;;16.23;;
1545;SDS011;766;51.502;9.752;2024-02-28T00:25:32;26.40;;;16.23;;
1545;SDS011;766;51.502;9.752;2024-02-28T00:28:01;25.92;;;17.00;;
1545;SDS011;766;51.502;9.752;2024-02-28T00:30:33;30.10;;;17.73;;
1545;SDS011;766;51.502;9.752;2024-02-28T00:33:01;22.98;;;15.60;;
1545;SDS011;766;51.502;9.752;2024-02-28T00:35:31;29.60;;;16.27;;
1545;SDS011;766;51.502;9.752;2024-02-28T00:38:00;23.83;;;17.02;;
1545;SDS011;766;51.502;9.752;2024-02-28T00:40:28;24.85;;;16.38;;
1545;SDS011;766;51.502;9.752;2024-02-28T00:42:57;28.15;;;16.48;;
1545;SDS011;766;51.502;9.752;2024-02-28T00:45:28;24.60;;;16.52;;
1545;SDS011;766;51.502;9.752;2024-02-28T00:47:58;26.20;;;16.17;;
1545;SDS011;766;51.502;9.752;2024-02-28T00:50:26;27.55;;;16.10;;
1545;SDS011;766;51.502;9.752;2024-02-28T00:52:54;23.70;;;16.02;;
1545;SDS011;766;51.502;9.752;2024-02-28T00:55:22;26.15;;;16.83;;
1545;SDS011;766;51.502;9.752;2024-02-28T00:57:50;23.58;;;16.40;;
1545;SDS011;766;51.502;9.752;2024-02-28T01:00:19;24.20;;;16.23;;
1545;SDS011;766;51.502;9.752;2024-02-28T01:02:47;25.45;;;16.40;;
1545;SDS011;766;51.502;9.752;2024-02-28T01:05:17;22.38;;;14.68;;
1545;SDS011;766;51.502;9.752;2024-02-28T01:07:45;24.95;;;15.40;;
1545;SDS011;766;51.502;9.752;2024-02-28T01:10:13;25.58;;;16.27;;
1545;SDS011;766;51.502;9.752;2024-02-28T01:12:44;24.08;;;15.82;;
1545;SDS011;766;51.502;9.752;2024-02-28T01:15:12;26.60;;;16.67;;
1545;SDS011;766;51.502;9.752;2024-02-28T01:17:40;25.70;;;15.77;;
1545;SDS011;766;51.502;9.752;2024-02-28T01:20:09;22.50;;;15.30;;
1545;SDS011;766;51.502;9.752;2024-02-28T01:22:39;24.65;;;16.00;;
1545;SDS011;766;51.502;9.752;2024-02-28T01:25:08;24.63;;;15.70;;
1545;SDS011;766;51.502;9.752;2024-02-28T01:27:44;23.98;;;15.18;;
1545;SDS011;766;51.502;9.752;2024-02-28T01:30:12;24.17;;;15.70;;
1545;SDS011;766;51.502;9.752;2024-02-28T01:32:40;25.45;;;16.33;;
1545;SDS011;766;51.502;9.752;2024-02-28T01:35:09;25.50;;;16.13;;
1545;SDS011;766;51.502;9.752;2024-02-28T01:37:37;27.45;;;16.67;;
1545;SDS011;766;51.502;9.752;2024-02-28T01:40:07;19.90;;;13.77;;
1545;SDS011;766;51.502;9.752;2024-02-28T01:42:36;22.20;;;15.55;;
1545;SDS011;766;51.502;9.752;2024-02-28T01:45:07;24.65;;;15.60;;
1545;SDS011;766;51.502;9.752;2024-02-28T01:47:40;24.83;;;15.27;;
1545;SDS011;766;51.502;9.752;2024-02-28T01:50:09;22.88;;;15.00;;
1545;SDS011;766;51.502;9.752;2024-02-28T01:52:38;27.05;;;16.20;;
1545;SDS011;766;51.502;9.752;2024-02-28T01:55:10;23.92;;;15.68;;
1545;SDS011;766;51.502;9.752;2024-02-28T01:57:38;23.38;;;14.48;;
1545;SDS011;766;51.502;9.752;2024-02-28T02:00:06;26.25;;;15.25;;
1545;SDS011;766;51.502;9.752;2024-02-28T02:02:35;24.13;;;15.60;;
1545;SDS011;766;51.502;9.752;2024-02-28T02:05:04;24.10;;;15.35;;
1545;SDS011;766;51.502;9.752;2024-02-28T02:07:33;23.80;;;14.77;;
1545;SDS011;766;51.502;9.752;2024-02-28T02:10:01;22.67;;;15.35;;
1545;SDS011;766;51.502;9.752;2024-02-28T02:12:36;23.70;;;14.90;;
1545;SDS011;766;51.502;9.752;2024-02-28T02:15:04;25.40;;;15.70;;
1545;SDS011;766;51.502;9.752;2024-02-28T02:17:33;26.65;;;15.82;;
1545;SDS011;766;51.502;9.752;2024-02-28T02:20:01;23.17;;;14.63;;
1545;SDS011;766;51.502;9.752;2024-02-28T02:22:34;23.75;;;14.82;;
1545;SDS011;766;51.502;9.752;2024-02-28T02:25:05;28.02;;;16.08;;
1545;SDS011;766;51.502;9.752;2024-02-28T02:27:37;25.17;;;16.27;;
1545;SDS011;766;51.502;9.752;2024-02-28T02:30:05;25.15;;;16.23;;
1545;SDS011;766;51.502;9.752;2024-02-28T02:32:34;25.73;;;16.13;;
1545;SDS011;766;51.502;9.752;2024-02-28T02:35:03;24.63;;;15.30;;
1545;SDS011;766;51.502;9.752;2024-02-28T02:37:35;29.55;;;17.95;;
1545;SDS011;766;51.502;9.752;2024-02-28T02:40:04;24.90;;;15.60;;
1545;SDS011;766;51.502;9.752;2024-02-28T02:42:33;25.67;;;15.77;;
1545;SDS011;766;51.502;9.752;2024-02-28T02:45:01;24.65;;;15.18;;
1545;SDS011;766;51.502;9.752;2024-02-28T02:47:29;27.38;;;17.08;;
1545;SDS011;766;51.502;9.752;2024-02-28T02:49:57;24.92;;;15.07;;
1545;SDS011;766;51.502;9.752;2024-02-28T02:52:25;22.63;;;14.50;;
1545;SDS011;766;51.502;9.752;2024-02-28T02:54:55;26.75;;;16.90;;
1545;SDS011;766;51.502;9.752;2024-02-28T02:57:23;31.00;;;17.27;;
1545;SDS011;766;51.502;9.752;2024-02-28T02:59:51;28.25;;;17.38;;
1545;SDS011;766;51.502;9.752;2024-02-28T03:02:19;24.73;;;15.68;;
1545;SDS011;766;51.502;9.752;2024-02-28T03:04:47;26.13;;;17.17;;
1545;SDS011;766;51.502;9.752;2024-02-28T03:07:15;26.38;;;17.20;;
1545;SDS011;766;51.502;9.752;2024-02-28T03:09:46;27.60;;;17.02;;
1545;SDS011;766;51.502;9.752;2024-02-28T03:12:16;26.15;;;17.48;;
1545;SDS011;766;51.502;9.752;2024-02-28T03:14:44;29.60;;;17.23;;
1545;SDS011;766;51.502;9.752;2024-02-28T03:17:12;27.98;;;16.40;;
1545;SDS011;766;51.502;9.752;2024-02-28T03:19:41;29.38;;;17.38;;
1545;SDS011;766;51.502;9.752;2024-02-28T03:22:09;29.45;;;17.35;;
1545;SDS011;766;51.502;9.752;2024-02-28T03:24:37;26.58;;;16.70;;
1545;SDS011;766;51.502;9.752;2024-02-28T03:27:09;30.38;;;18.10;;
1545;SDS011;766;51.502;9.752;2024-02-28T03:29:38;28.30;;;17.27;;
1545;SDS011;766;51.502;9.752;2024-02-28T03:32:06;30.38;;;18.00;;
1545;SDS011;766;51.502;9.752;2024-02-28T03:34:35;26.42;;;16.48;;
1545;SDS011;766;51.502;9.752;2024-02-28T03:37:03;31.70;;;18.23;;
1545;SDS011;766;51.502;9.752;2024-02-28T03:39:31;32.78;;;18.60;;
1545;SDS011;766;51.502;9.752;2024-02-28T03:42:02;28.88;;;17.95;;
1545;SDS011;766;51.502;9.752;2024-02-28T03:44:30;29.95;;;18.80;;
1545;SDS011;766;51.502;9.752;2024-02-28T03:46:59;34.75;;;19.75;;
1545;SDS011;766;51.502;9.752;2024-02-28T03:49:28;31.25;;;18.08;;
1545;SDS011;766;51.502;9.752;2024-02-28T03:51:56;31.65;;;18.10;;
1545;SDS011;766;51.502;9.752;2024-02-28T03:54:24;28.15;;;18.15;;
1545;SDS011;766;51.502;9.752;2024-02-28T03:56:52;30.00;;;18.42;;
1545;SDS011;766;51.502;9.752;2024-02-28T03:59:20;31.63;;;19.60;;
1545;SDS011;766;51.502;9.752;2024-02-28T04:01:58;30.95;;;19.10;;
1545;SDS011;766;51.502;9.752;2024-02-28T04:04:27;33.38;;;18.35;;
1545;SDS011;766;51.502;9.752;2024-02-28T04:06:55;29.30;;;18.48;;
1545;SDS011;766;51.502;9.752;2024-02-28T04:09:23;31.98;;;18.58;;
1545;SDS011;766;51.502;9.752;2024-02-28T04:11:53;36.33;;;20.30;;
1545;SDS011;766;51.502;9.752;2024-02-28T04:14:21;33.92;;;18.50;;
1545;SDS011;766;51.502;9.752;2024-02-28T04:16:52;34.28;;;19.25;;
1545;SDS011;766;51.502;9.752;2024-02-28T04:19:22;32.13;;;19.80;;
1545;SDS011;766;51.502;9.752;2024-02-28T04:21:52;34.17;;;19.85;;
1545;SDS011;766;51.502;9.752;2024-02-28T04:24:22;33.53;;;19.05;;
1545;SDS011;766;51.502;9.752;2024-02-28T04:26:50;31.75;;;19.35;;
1545;SDS011;766;51.502;9.752;2024-02-28T04:29:20;33.45;;;19.67;;
1545;SDS011;766;51.502;9.752;2024-02-28T04:31:50;34.33;;;20.25;;
1545;SDS011;766;51.502;9.752;2024-02-28T04:34:22;33.45;;;19.23;;
1545;SDS011;766;51.502;9.752;2024-02-28T04:36:50;32.28;;;19.17;;
1545;SDS011;766;51.502;9.752;2024-02-28T04:39:19;32.42;;;18.45;;
1545;SDS011;766;51.502;9.752;2024-02-28T04:41:47;29.73;;;18.40;;
1545;SDS011;766;51.502;9.752;2024-02-28T04:44:16;31.90;;;18.15;;
1545;SDS011;766;51.502;9.752;2024-02-28T04:46:44;29.75;;;17.38;;
1545;SDS011;766;51.502;9.752;2024-02-28T04:49:12;39.15;;;17.70;;
1545;SDS011;766;51.502;9.752;2024-02-28T04:51:42;30.65;;;18.95;;
1545;SDS011;766;51.502;9.752;2024-02-28T04:54:10;84.95;;;20.10;;
1545;SDS011;766;51.502;9.752;2024-02-28T04:56:39;32.72;;;18.73;;
1545;SDS011;766;51.502;9.752;2024-02-28T04:59:08;33.20;;;18.27;;
1545;SDS011;766;51.502;9.752;2024-02-28T05:01:38;74.40;;;19.40;;
1545;SDS011;766;51.502;9.752;2024-02-28T05:04:08;53.20;;;19.88;;
1545;SDS011;766;51.502;9.752;2024-02-28T05:06:37;33.97;;;19.23;;
1545;SDS011;766;51.502;9.752;2024-02-28T05:09:07;36.67;;;19.77;;
1545;SDS011;766;51.502;9.752;2024-02-28T05:11:35;36.10;;;19.45;;
1545;SDS011;766;51.502;9.752;2024-02-28T05:14:03;40.20;;;20.98;;
1545;SDS011;766;51.502;9.752;2024-02-28T05:16:32;34.20;;;19.25;;
1545;SDS011;766;51.502;9.752;2024-02-28T05:19:00;32.03;;;17.73;;
1545;SDS011;766;51.502;9.752;2024-02-28T05:21:28;36.08;;;18.17;;
1545;SDS011;766;51.502;9.752;2024-02-28T05:23:57;40.55;;;19.02;;
1545;SDS011;766;51.502;9.752;2024-02-28T05:26:26;34.97;;;19.30;;
1545;SDS011;766;51.502;9.752;2024-02-28T05:28:54;38.83;;;20.00;;
1545;SDS011;766;51.502;9.752;2024-02-28T05:31:24;55.05;;;20.40;;
1545;SDS011;766;51.502;9.752;2024-02-28T05:33:53;50.97;;;20.73;;
1545;SDS011;766;51.502;9.752;2024-02-28T05:36:23;41.63;;;18.45;;
1545;SDS011;766;51.502;9.752;2024-02-28T05:38:52;48.13;;;20.20;;
1545;SDS011;766;51.502;9.752;2024-02-28T05:41:23;42.17;;;19.17;;
1545;SDS011;766;51.502;9.752;2024-02-28T05:43:53;34.67;;;19.38;;
1545;SDS011;766;51.502;9.752;2024-02-28T05:46:21;41.45;;;20.02;;
1545;SDS011;766;51.502;9.752;2024-02-28T05:48:53;66.82;;;18.83;;
1545;SDS011;766;51.502;9.752;2024-02-28T05:51:21;53.92;;;17.65;;
1545;SDS011;766;51.502;9.752;2024-02-28T05:53:49;56.95;;;18.58;;
1545;SDS011;766;51.502;9.752;2024-02-28T05:56:18;43.95;;;18.42;;
1545;SDS011;766;51.502;9.752;2024-02-28T05:58:48;41.35;;;18.48;;
1545;SDS011;766;51.502;9.752;2024-02-28T06:01:18;38.70;;;19.30;;
1545;SDS011;766;51.502;9.752;2024-02-28T06:03:47;63.50;;;20.30;;
1545;SDS011;766;51.502;9.752;2024-02-28T06:06:16;49.33;;;19.10;;
1545;SDS011;766;51.502;9.752;2024-02-28T06:08:44;50.60;;;19.08;;
1545;SDS011;766;51.502;9.752;2024-02-28T06:11:15;69.95;;;19.98;;
1545;SDS011;766;51.502;9.752;2024-02-28T06:13:44;139.48;;;22.02;;
1545;SDS011;766;51.502;9.752;2024-02-28T06:16:15;82.70;;;19.33;;
1545;SDS011;766;51.502;9.752;2024-02-28T06:18:46;41.83;;;19.45;;
1545;SDS011;766;51.502;9.752;2024-02-28T06:21:14;54.20;;;21.63;;
1545;SDS011;766;51.502;9.752;2024-02-28T06:23:43;44.92;;;19.67;;
1545;SDS011;766;51.502;9.752;2024-02-28T06:26:14;45.65;;;19.15;;
1545;SDS011;766;51.502;9.752;2024-02-28T06:28:44;43.97;;;18.67;;
1545;SDS011;766;51.502;9.752;2024-02-28T06:31:15;40.78;;;17.67;;
1545;SDS011;766;51.502;9.752;2024-02-28T06:33:45;54.28;;;19.48;;
1545;SDS011;766;51.502;9.752;2024-02-28T06:36:13;35.55;;;18.15;;
1545;SDS011;766;51.502;9.752;2024-02-28T06:38:41;37.55;;;18.75;;
1545;SDS011;766;51.502;9.752;2024-02-28T06:41:10;47.35;;;18.02;;
1545;SDS011;766;51.502;9.752;2024-02-28T06:43:38;36.83;;;18.67;;
1545;SDS011;766;51.502;9.752;2024-02-28T06:46:06;41.42;;;18.45;;
1545;SDS011;766;51.502;9.752;2024-02-28T06:48:34;42.13;;;18.45;;
1545;SDS011;766;51.502;9.752;2024-02-28T06:51:04;43.42;;;16.85;;
1545;SDS011;766;51.502;9.752;2024-02-28T06:53:32;32.33;;;16.48;;
1545;SDS011;766;51.502;9.752;2024-02-28T06:56:01;36.80;;;17.98;;
1545;SDS011;766;51.502;9.752;2024-02-28T06:58:30;33.22;;;17.65;;
1545;SDS011;766;51.502;9.752;2024-02-28T07:00:58;35.28;;;16.70;;
1545;SDS011;766;51.502;9.752;2024-02-28T07:03:28;39.80;;;16.85;;
1545;SDS011;766;51.502;9.752;2024-02-28T07:05:56;62.90;;;18.92;;
1545;SDS011;766;51.502;9.752;2024-02-28T07:08:26;41.20;;;17.85;;
1545;SDS011;766;51.502;9.752;2024-02-28T07:10:57;64.13;;;18.10;;
1545;SDS011;766;51.502;9.752;2024-02-28T07:13:26;37.80;;;17.05;;
1545;SDS011;766;51.502;9.752;2024-02-28T07:15:54;33.85;;;17.35;;
1545;SDS011;766;51.502;9.752;2024-02-28T07:18:23;57.28;;;17.38;;
1545;SDS011;766;51.502;9.752;2024-02-28T07:20:54;30.90;;;17.35;;
1545;SDS011;766;51.502;9.752;2024-02-28T07:23:22;36.45;;;18.33;;
1545;SDS011;766;51.502;9.752;2024-02-28T07:25:52;36.00;;;18.27;;
1545;SDS011;766;51.502;9.752;2024-02-28T07:28:20;37.53;;;17.83;;
1545;SDS011;766;51.502;9.752;2024-02-28T07:30:48;35.95;;;16.02;;
1545;SDS011;766;51.502;9.752;2024-02-28T07:33:17;49.90;;;18.23;;
1545;SDS011;766;51.502;9.752;2024-02-28T07:35:48;34.65;;;17.75;;
1545;SDS011;766;51.502;9.752;2024-02-28T07:38:19;35.67;;;18.05;;
1545;SDS011;766;51.502;9.752;2024-02-28T07:40:58;37.08;;;18.00;;
1545;SDS011;766;51.502;9.752;2024-02-28T07:43:26;44.33;;;19.27;;
1545;SDS011;766;51.502;9.752;2024-02-28T07:45:55;56.15;;;17.65;;
1545;SDS011;766;51.502;9.752;2024-02-28T07:48:23;44.63;;;17.27;;
1545;SDS011;766;51.502;9.752;2024-02-28T07:50:51;42.40;;;18.17;;
1545;SDS011;766;51.502;9.752;2024-02-28T07:53:19;39.47;;;19.52;;
1545;SDS011;766;51.502;9.752;2024-02-28T07:55:48;39.90;;;19.85;;
1545;SDS011;766;51.502;9.752;2024-02-28T07:58:18;41.40;;;19.42;;
1545;SDS011;766;51.502;9.752;2024-02-28T08:00:49;43.80;;;20.08;;
1545;SDS011;766;51.502;9.752;2024-02-28T08:03:19;45.65;;;20.10;;
1545;SDS011;766;51.502;9.752;2024-02-28T08:05:47;42.40;;;20.00;;
1545;SDS011;766;51.502;9.752;2024-02-28T08:08:18;41.08;;;20.05;;
1545;SDS011;766;51.502;9.752;2024-02-28T08:10:46;46.55;;;21.02;;
1545;SDS011;766;51.502;9.752;2024-02-28T08:13:15;44.17;;;22.15;;
1545;SDS011;766;51.502;9.752;2024-02-28T08:15:48;42.33;;;20.80;;
1545;SDS011;766;51.502;9.752;2024-02-28T08:18:16;41.45;;;21.10;;
1545;SDS011;766;51.502;9.752;2024-02-28T08:20:44;39.42;;;19.95;;
1545;SDS011;766;51.502;9.752;2024-02-28T08:23:13;44.00;;;21.70;;
1545;SDS011;766;51.502;9.752;2024-02-28T08:25:41;44.13;;;20.00;;
1545;SDS011;766;51.502;9.752;2024-02-28T08:28:10;40.50;;;20.10;;
1545;SDS011;766;51.502;9.752;2024-02-28T08:30:40;41.20;;;20.40;;
1545;SDS011;766;51.502;9.752;2024-02-28T08:33:08;42.47;;;21.63;;
1545;SDS011;766;51.502;9.752;2024-02-28T08:35:37;39.17;;;20.10;;
1545;SDS011;766;51.502;9.752;2024-02-28T08:38:05;38.75;;;21.48;;
1545;SDS011;766;51.502;9.752;2024-02-28T08:40:33;39.65;;;21.30;;
1545;SDS011;766;51.502;9.752;2024-02-28T08:43:07;40.28;;;20.58;;
1545;SDS011;766;51.502;9.752;2024-02-28T08:45:35;36.22;;;19.42;;
1545;SDS011;766;51.502;9.752;2024-02-28T08:48:06;35.50;;;18.77;;
1545;SDS011;766;51.502;9.752;2024-02-28T08:50:35;37.83;;;19.10;;
1545;SDS011;766;51.502;9.752;2024-02-28T08:53:03;38.15;;;18.95;;
1545;SDS011;766;51.502;9.752;2024-02-28T08:55:31;37.25;;;19.55;;
1545;SDS011;766;51.502;9.752;2024-02-28T08:57:59;35.50;;;19.77;;
1545;SDS011;766;51.502;9.752;2024-02-28T09:00:29;37.95;;;19.75;;
1545;SDS011;766;51.502;9.752;2024-02-28T09:02:57;39.75;;;19.67;;
1545;SDS011;766;51.502;9.752;2024-02-28T09:05:27;37.72;;;19.35;;
1545;SDS011;766;51.502;9.752;2024-02-28T09:08:01;37.38;;;18.33;;
1545;SDS011;766;51.502;9.752;2024-02-28T09:10:29;35.78;;;18.70;;
1545;SDS011;766;51.502;9.752;2024-02-28T09:13:00;35.47;;;19.17;;
1545;SDS011;766;51.502;9.752;2024-02-28T09:15:29;37.15;;;18.85;;
1545;SDS011;766;51.502;9.752;2024-02-28T09:17:57;37.65;;;19.92;;
1545;SDS011;766;51.502;9.752;2024-02-28T09:20:31;35.63;;;19.00;;
1545;SDS011;766;51.502;9.752;2024-02-28T09:22:59;35.50;;;18.45;;
1545;SDS011;766;51.502;9.752;2024-02-28T09:25:28;38.03;;;20.25;;
1545;SDS011;766;51.502;9.752;2024-02-28T09:27:56;38.45;;;20.05;;
1545;SDS011;766;51.502;9.752;2024-02-28T09:30:27;38.53;;;19.88;;
1545;SDS011;766;51.502;9.752;2024-02-28T09:33:08;41.92;;;20.17;;
1545;SDS011;766;51.502;9.752;2024-02-28T09:35:40;39.28;;;20.30;;
1545;SDS011;766;51.502;9.752;2024-02-28T09:38:09;36.03;;;19.55;;
1545;SDS011;766;51.502;9.752;2024-02-28T09:40:38;37.38;;;19.45;;
1545;SDS011;766;51.502;9.752;2024-02-28T09:43:06;37.65;;;18.73;;
1545;SDS011;766;51.502;9.752;2024-02-28T09:45:42;33.60;;;17.77;;
1545;SDS011;766;51.502;9.752;2024-02-28T09:48:14;35.25;;;19.38;;
1545;SDS011;766;51.502;9.752;2024-02-28T09:50:47;35.30;;;18.67;;
1545;SDS011;766;51.502;9.752;2024-02-28T09:53:15;33.95;;;19.05;;
1545;SDS011;766;51.502;9.752;2024-02-28T09:55:43;35.70;;;18.45;;
1545;SDS011;766;51.502;9.752;2024-02-28T09:58:12;34.83;;;18.67;;
1545;SDS011;766;51.502;9.752;2024-02-28T10:00:40;32.03;;;18.40;;
1545;SDS011;766;51.502;9.752;2024-02-28T10:03:11;31.42;;;17.90;;
1545;SDS011;766;51.502;9.752;2024-02-28T10:05:42;34.35;;;18.85;;
1545;SDS011;766;51.502;9.752;2024-02-28T10:08:12;33.22;;;19.35;;
1545;SDS011;766;51.502;9.752;2024-02-28T10:10:44;34.22;;;17.63;;
1545;SDS011;766;51.502;9.752;2024-02-28T10:13:15;35.03;;;19.45;;
1545;SDS011;766;51.502;9.752;2024-02-28T10:15:44;36.75;;;18.95;;
1545;SDS011;766;51.502;9.752;2024-02-28T10:18:12;32.30;;;18.80;;
1545;SDS011;766;51.502;9.752;2024-02-28T10:20:40;34.95;;;19.75;;
1545;SDS011;766;51.502;9.752;2024-02-28T10:23:09;33.67;;;18.77;;
1545;SDS011;766;51.502;9.752;2024-02-28T10:25:45;34.00;;;19.35;;
1545;SDS011;766;51.502;9.752;2024-02-28T10:28:23;37.38;;;20.13;;
1545;SDS011;766;51.502;9.752;2024-02-28T10:30:51;34.75;;;20.17;;
1545;SDS011;766;51.502;9.752;2024-02-28T10:33:21;33.95;;;20.08;;
1545;SDS011;766;51.502;9.752;2024-02-28T10:35:51;35.30;;;20.50;;
1545;SDS011;766;51.502;9.752;2024-02-28T10:38:19;38.00;;;21.52;;
1545;SDS011;766;51.502;9.752;2024-02-28T10:40:50;40.15;;;22.27;;
1545;SDS011;766;51.502;9.752;2024-02-28T10:43:20;35.40;;;21.25;;
1545;SDS011;766;51.502;9.752;2024-02-28T10:45:50;43.95;;;21.92;;
1545;SDS011;766;51.502;9.752;2024-02-28T10:48:39;36.85;;;21.63;;
1545;SDS011;766;51.502;9.752;2024-02-28T10:51:09;38.05;;;21.70;;
1545;SDS011;766;51.502;9.752;2024-02-28T10:53:42;36.97;;;21.02;;
1545;SDS011;766;51.502;9.752;2024-02-28T10:56:18;35.42;;;21.38;;
1545;SDS011;766;51.502;9.752;2024-02-28T10:58:49;41.50;;;21.77;;
1545;SDS011;766;51.502;9.752;2024-02-28T11:01:19;39.58;;;21.45;;
1545;SDS011;766;51.502;9.752;2024-02-28T11:03:49;40.63;;;23.80;;
1545;SDS011;766;51.502;9.752;2024-02-28T11:06:18;43.40;;;23.27;;
1545;SDS011;766;51.502;9.752;2024-02-28T11:08:49;44.70;;;22.63;;
1545;SDS011;766;51.502;9.752;2024-02-28T11:11:21;37.97;;;22.20;;
1545;SDS011;766;51.502;9.752;2024-02-28T11:13:53;38.63;;;22.23;;
1545;SDS011;766;51.502;9.752;2024-02-28T11:16:28;40.15;;;23.08;;
1545;SDS011;766;51.502;9.752;2024-02-28T11:18:57;39.80;;;22.73;;
1545;SDS011;766;51.502;9.752;2024-02-28T11:21:27;38.60;;;22.60;;
1545;SDS011;766;51.502;9.752;2024-02-28T11:23:58;38.70;;;22.50;;
1545;SDS011;766;51.502;9.752;2024-02-28T11:26:29;36.65;;;21.70;;
1545;SDS011;766;51.502;9.752;2024-02-28T11:28:57;38.22;;;21.60;;
1545;SDS011;766;51.502;9.752;2024-02-28T11:31:25;38.53;;;23.17;;
1545;SDS011;766;51.502;9.752;2024-02-28T11:33:54;39.53;;;22.33;;
1545;SDS011;766;51.502;9.752;2024-02-28T11:36:25;39.35;;;22.85;;
1545;SDS011;766;51.502;9.752;2024-02-28T11:38:54;40.67;;;22.88;;
1545;SDS011;766;51.502;9.752;2024-02-28T11:41:30;36.55;;;22.02;;
1545;SDS011;766;51.502;9.752;2024-02-28T11:43:59;42.75;;;23.15;;
1545;SDS011;766;51.502;9.752;2024-02-28T11:46:27;38.53;;;22.33;;
1545;SDS011;766;51.502;9.752;2024-02-28T11:48:55;39.75;;;23.60;;
1545;SDS011;766;51.502;9.752;2024-02-28T11:51:24;38.05;;;21.90;;
1545;SDS011;766;51.502;9.752;2024-02-28T11:53:52;38.05;;;22.60;;
1545;SDS011;766;51.502;9.752;2024-02-28T11:56:20;39.40;;;22.85;;
1545;SDS011;766;51.502;9.752;2024-02-28T11:58:50;36.05;;;21.88;;
1545;SDS011;766;51.502;9.752;2024-02-28T12:01:19;37.38;;;22.73;;
1545;SDS011;766;51.502;9.752;2024-02-28T12:03:59;36.05;;;22.90;;
1545;SDS011;766;51.502;9.752;2024-02-28T12:06:29;35.03;;;22.05;;
1545;SDS011;766;51.502;9.752;2024-02-28T12:08:57;38.15;;;23.52;;
1545;SDS011;766;51.502;9.752;2024-02-28T12:11:25;34.42;;;22.60;;
1545;SDS011;766;51.502;9.752;2024-02-28T12:13:57;37.03;;;23.60;;
1545;SDS011;766;51.502;9.752;2024-02-28T12:16:26;38.45;;;24.08;;
1545;SDS011;766;51.502;9.752;2024-02-28T12:18:54;34.63;;;21.58;;
1545;SDS011;766;51.502;9.752;2024-02-28T12:21:23;38.25;;;23.30;;
1545;SDS011;766;51.502;9.752;2024-02-28T12:23:51;35.22;;;22.60;;
1545;SDS011;766;51.502;9.752;2024-02-28T12:26:20;39.05;;;24.08;;
1545;SDS011;766;51.502;9.752;2024-02-28T12:28:48;36.47;;;24.23;;
1545;SDS011;766;51.502;9.752;2024-02-28T12:31:18;35.40;;;22.83;;
1545;SDS011;766;51.502;9.752;2024-02-28T12:33:48;34.63;;;22.67;;
1545;SDS011;766;51.502;9.752;2024-02-28T12:36:16;33.60;;;22.27;;
1545;SDS011;766;51.502;9.752;2024-02-28T12:38:45;34.50;;;21.15;;
1545;SDS011;766;51.502;9.752;2024-02-28T12:41:13;34.22;;;22.10;;
1545;SDS011;766;51.502;9.752;2024-02-28T12:43:42;35.95;;;21.83;;
1545;SDS011;766;51.502;9.752;2024-02-28T12:46:10;31.63;;;20.98;;
1545;SDS011;766;51.502;9.752;2024-02-28T12:48:40;35.03;;;22.45;;
1545;SDS011;766;51.502;9.752;2024-02-28T12:51:11;31.65;;;20.65;;
1545;SDS011;766;51.502;9.752;2024-02-28T12:54:03;31.73;;;19.42;;
1545;SDS011;766;51.502;9.752;2024-02-28T12:56:31;31.35;;;20.90;;
1545;SDS011;766;51.502;9.752;2024-02-28T12:58:59;31.45;;;21.08;;
1545;SDS011;766;51.502;9.752;2024-02-28T13:01:27;31.10;;;21.38;;
1545;SDS011;766;51.502;9.752;2024-02-28T13:03:57;31.70;;;20.90;;
1545;SDS011;766;51.502;9.752;2024-02-28T13:06:26;36.50;;;22.42;;
1545;SDS011;766;51.502;9.752;2024-02-28T13:08:54;29.38;;;20.05;;
1545;SDS011;766;51.502;9.752;2024-02-28T13:11:23;31.70;;;20.77;;
1545;SDS011;766;51.502;9.752;2024-02-28T13:13:52;33.53;;;21.25;;
1545;SDS011;766;51.502;9.752;2024-02-28T13:16:20;35.78;;;20.80;;
1545;SDS011;766;51.502;9.752;2024-02-28T13:18:49;30.45;;;19.23;;
1545;SDS011;766;51.502;9.752;2024-02-28T13:21:18;30.13;;;19.85;;
1545;SDS011;766;51.502;9.752;2024-02-28T13:23:47;27.60;;;18.30;;
1545;SDS011;766;51.502;9.752;2024-02-28T13:26:15;28.02;;;18.33;;
1545;SDS011;766;51.502;9.752;2024-02-28T13:28:45;30.05;;;20.55;;
1545;SDS011;766;51.502;9.752;2024-02-28T13:31:18;29.02;;;19.45;;
1545;SDS011;766;51.502;9.752;2024-02-28T13:33:46;27.80;;;19.35;;
1545;SDS011;766;51.502;9.752;2024-02-28T13:36:16;31.65;;;20.80;;
1545;SDS011;766;51.502;9.752;2024-02-28T13:38:45;31.85;;;20.73;;
1545;SDS011;766;51.502;9.752;2024-02-28T13:41:13;31.98;;;20.65;;
1545;SDS011;766;51.502;9.752;2024-02-28T13:43:43;33.90;;;21.85;;
1545;SDS011;766;51.502;9.752;2024-02-28T13:46:11;32.88;;;20.38;;
1545;SDS011;766;51.502;9.752;2024-02-28T13:48:41;30.40;;;20.45;;
1545;SDS011;766;51.502;9.752;2024-02-28T13:51:10;33.67;;;21.15;;
1545;SDS011;766;51.502;9.752;2024-02-28T13:53:38;29.83;;;20.73;;
1545;SDS011;766;51.502;9.752;2024-02-28T13:56:08;34.15;;;20.80;;
1545;SDS011;766;51.502;9.752;2024-02-28T13:58:36;32.67;;;20.40;;
1545;SDS011;766;51.502;9.752;2024-02-28T14:01:16;31.83;;;20.33;;
1545;SDS011;766;51.502;9.752;2024-02-28T14:03:45;30.02;;;19.27;;
1545;SDS011;766;51.502;9.752;2024-02-28T14:06:16;31.23;;;20.50;;
1545;SDS011;766;51.502;9.752;2024-02-28T14:08:45;32.72;;;19.55;;
1545;SDS011;766;51.502;9.752;2024-02-28T14:11:14;30.33;;;19.20;;
1545;SDS011;766;51.502;9.752;2024-02-28T14:13:44;28.00;;;19.38;;
1545;SDS011;766;51.502;9.752;2024-02-28T14:16:12;35.35;;;19.05;;
1545;SDS011;766;51.502;9.752;2024-02-28T14:18:40;30.90;;;19.63;;
1545;SDS011;766;51.502;9.752;2024-02-28T14:21:08;29.83;;;19.58;;
1545;SDS011;766;51.502;9.752;2024-02-28T14:23:37;33.10;;;20.42;;
1545;SDS011;766;51.502;9.752;2024-02-28T14:26:05;29.63;;;19.10;;
1545;SDS011;766;51.502;9.752;2024-02-28T14:28:34;31.10;;;18.65;;
1545;SDS011;766;51.502;9.752;2024-02-28T14:31:03;31.92;;;18.67;;
1545;SDS011;766;51.502;9.752;2024-02-28T14:33:32;31.15;;;19.40;;
1545;SDS011;766;51.502;9.752;2024-02-28T14:36:01;31.33;;;19.58;;
1545;SDS011;766;51.502;9.752;2024-02-28T14:38:31;30.65;;;18.90;;
1545;SDS011;766;51.502;9.752;2024-02-28T14:41:00;32.22;;;19.58;;
1545;SDS011;766;51.502;9.752;2024-02-28T14:43:29;30.85;;;18.52;;
1545;SDS011;766;51.502;9.752;2024-02-28T14:45:59;30.73;;;18.58;;
1545;SDS011;766;51.502;9.752;2024-02-28T14:48:27;35.00;;;19.65;;
1545;SDS011;766;51.502;9.752;2024-02-28T14:50:55;28.77;;;19.60;;
1545;SDS011;766;51.502;9.752;2024-02-28T14:53:23;33.53;;;19.35;;
1545;SDS011;766;51.502;9.752;2024-02-28T14:55:52;28.80;;;19.48;;
1545;SDS011;766;51.502;9.752;2024-02-28T14:58:20;32.50;;;19.67;;
1545;SDS011;766;51.502;9.752;2024-02-28T15:00:48;34.85;;;20.95;;
1545;SDS011;766;51.502;9.752;2024-02-28T15:03:18;30.23;;;18.00;;
1545;SDS011;766;51.502;9.752;2024-02-28T15:05:47;30.67;;;19.92;;
1545;SDS011;766;51.502;9.752;2024-02-28T15:08:15;31.38;;;19.67;;
1545;SDS011;766;51.502;9.752;2024-02-28T15:10:43;33.45;;;19.60;;
1545;SDS011;766;51.502;9.752;2024-02-28T15:13:12;33.40;;;19.75;;